sensor_id;sensor_type;location;lat;lon;timestamp;temperature;humidity
51500;DHT22;39101;53.478;6.158;2023-06-26T00:01:26;22.60;99.90
51500;DHT22;39101;53.478;6.158;2023-06-26T00:03:55;22.50;99.90
51500;DHT22;39101;53.478;6.158;2023-06-26T00:06:21;22.60;99.90
51500;DHT22;39101;53.478;6.158;2023-06-26T00:08:50;22.50;99.90
51500;DHT22;39101;53.478;6.158;2023-06-26T00:11:16;22.60;99.90
51500;DHT22;39101;53.478;6.158;2023-06-26T00:13:42;22.60;99.90
51500;DHT22;39101;53.478;6.158;2023-06-26T00:16:07;22.50;99.90
51500;DHT22;39101;53.478;6.158;2023-06-26T00:18:33;22.60;99.90
51500;DHT22;39101;53.478;6.158;2023-06-26T00:20:58;22.40;99.90
51500;DHT22;39101;53.478;6.158;2023-06-26T00:23:24;22.60;99.90
51500;DHT22;39101;53.478;6.158;2023-06-26T00:25:50;22.50;99.90
51500;DHT22;39101;53.478;6.158;2023-06-26T00:28:15;22.50;99.90
51500;DHT22;39101;53.478;6.158;2023-06-26T00:30:42;22.50;99.90
51500;DHT22;39101;53.478;6.158;2023-06-26T00:33:07;22.50;99.90
51500;DHT22;39101;53.478;6.158;2023-06-26T00:35:33;22.50;99.90
51500;DHT22;39101;53.478;6.158;2023-06-26T00:38:00;22.50;99.90
51500;DHT22;39101;53.478;6.158;2023-06-26T00:40:26;22.40;99.90
51500;DHT22;39101;53.478;6.158;2023-06-26T00:42:53;22.40;99.90
51500;DHT22;39101;53.478;6.158;2023-06-26T00:45:19;22.40;99.90
51500;DHT22;39101;53.478;6.158;2023-06-26T00:47:44;22.40;99.90
51500;DHT22;39101;53.478;6.158;2023-06-26T00:50:10;22.50;99.90
51500;DHT22;39101;53.478;6.158;2023-06-26T00:52:37;22.40;99.90
51500;DHT22;39101;53.478;6.158;2023-06-26T00:55:03;22.40;99.90
51500;DHT22;39101;53.478;6.158;2023-06-26T00:57:30;22.40;99.90
51500;DHT22;39101;53.478;6.158;2023-06-26T00:59:56;22.40;99.90
51500;DHT22;39101;53.478;6.158;2023-06-26T01:02:22;22.40;99.90
51500;DHT22;39101;53.478;6.158;2023-06-26T01:04:49;22.50;99.90
51500;DHT22;39101;53.478;6.158;2023-06-26T01:07:16;22.40;99.90
51500;DHT22;39101;53.478;6.158;2023-06-26T01:09:47;22.40;99.90
51500;DHT22;39101;53.478;6.158;2023-06-26T01:12:14;22.40;99.90
51500;DHT22;39101;53.478;6.158;2023-06-26T01:14:40;22.40;99.90
51500;DHT22;39101;53.478;6.158;2023-06-26T01:17:06;22.40;99.90
51500;DHT22;39101;53.478;6.158;2023-06-26T01:19:33;22.30;99.90
51500;DHT22;39101;53.478;6.158;2023-06-26T01:25:15;22.40;99.90
51500;DHT22;39101;53.478;6.158;2023-06-26T01:27:49;22.30;99.90
51500;DHT22;39101;53.478;6.158;2023-06-26T01:30:16;22.30;99.90
51500;DHT22;39101;53.478;6.158;2023-06-26T01:32:44;22.40;99.90
51500;DHT22;39101;53.478;6.158;2023-06-26T01:35:11;22.30;99.90
51500;DHT22;39101;53.478;6.158;2023-06-26T01:37:37;22.30;99.90
51500;DHT22;39101;53.478;6.158;2023-06-26T01:40:06;22.20;99.90
51500;DHT22;39101;53.478;6.158;2023-06-26T01:42:33;22.30;99.90
51500;DHT22;39101;53.478;6.158;2023-06-26T01:45:24;22.30;99.90
51500;DHT22;39101;53.478;6.158;2023-06-26T01:47:50;22.20;99.90
51500;DHT22;39101;53.478;6.158;2023-06-26T01:50:24;22.20;99.90
51500;DHT22;39101;53.478;6.158;2023-06-26T01:52:59;22.20;99.90
51500;DHT22;39101;53.478;6.158;2023-06-26T01:58:02;22.10;99.90
51500;DHT22;39101;53.478;6.158;2023-06-26T02:00:28;22.10;99.90
51500;DHT22;39101;53.478;6.158;2023-06-26T02:02:54;22.10;99.90
51500;DHT22;39101;53.478;6.158;2023-06-26T02:05:19;22.00;99.90
51500;DHT22;39101;53.478;6.158;2023-06-26T02:07:45;21.90;99.90
51500;DHT22;39101;53.478;6.158;2023-06-26T02:10:11;21.90;99.90
51500;DHT22;39101;53.478;6.158;2023-06-26T02:12:37;21.90;99.90
51500;DHT22;39101;53.478;6.158;2023-06-26T02:15:03;21.80;99.90
51500;DHT22;39101;53.478;6.158;2023-06-26T02:17:30;21.80;99.90
51500;DHT22;39101;53.478;6.158;2023-06-26T02:19:56;21.70;99.90
51500;DHT22;39101;53.478;6.158;2023-06-26T02:22:21;21.70;99.90
51500;DHT22;39101;53.478;6.158;2023-06-26T02:24:47;21.50;99.90
51500;DHT22;39101;53.478;6.158;2023-06-26T02:27:13;21.50;99.90
51500;DHT22;39101;53.478;6.158;2023-06-26T02:29:40;21.50;99.90
51500;DHT22;39101;53.478;6.158;2023-06-26T02:32:06;21.40;99.90
51500;DHT22;39101;53.478;6.158;2023-06-26T02:34:31;21.30;99.90
51500;DHT22;39101;53.478;6.158;2023-06-26T02:36:57;21.30;99.90
51500;DHT22;39101;53.478;6.158;2023-06-26T02:39:24;21.20;99.90
51500;DHT22;39101;53.478;6.158;2023-06-26T02:41:49;21.20;99.90
51500;DHT22;39101;53.478;6.158;2023-06-26T02:44:15;21.10;99.90
51500;DHT22;39101;53.478;6.158;2023-06-26T02:46:41;21.10;99.90
51500;DHT22;39101;53.478;6.158;2023-06-26T02:49:07;21.00;99.90
51500;DHT22;39101;53.478;6.158;2023-06-26T02:51:33;21.10;99.90
51500;DHT22;39101;53.478;6.158;2023-06-26T02:53:59;21.00;99.90
51500;DHT22;39101;53.478;6.158;2023-06-26T02:56:24;21.00;99.90
51500;DHT22;39101;53.478;6.158;2023-06-26T02:58:57;20.90;99.90
51500;DHT22;39101;53.478;6.158;2023-06-26T03:01:23;20.90;99.90
51500;DHT22;39101;53.478;6.158;2023-06-26T03:03:49;20.80;99.90
51500;DHT22;39101;53.478;6.158;2023-06-26T03:06:15;20.90;99.90
51500;DHT22;39101;53.478;6.158;2023-06-26T03:08:41;20.90;99.90
51500;DHT22;39101;53.478;6.158;2023-06-26T03:11:07;20.90;99.90
51500;DHT22;39101;53.478;6.158;2023-06-26T03:13:37;21.00;99.90
51500;DHT22;39101;53.478;6.158;2023-06-26T03:16:04;21.00;99.90
51500;DHT22;39101;53.478;6.158;2023-06-26T03:18:29;21.10;99.90
51500;DHT22;39101;53.478;6.158;2023-06-26T03:20:56;21.20;99.90
51500;DHT22;39101;53.478;6.158;2023-06-26T03:23:22;21.10;99.90
51500;DHT22;39101;53.478;6.158;2023-06-26T03:25:49;21.20;99.90
51500;DHT22;39101;53.478;6.158;2023-06-26T03:28:15;21.20;99.90
51500;DHT22;39101;53.478;6.158;2023-06-26T03:30:40;21.10;99.90
51500;DHT22;39101;53.478;6.158;2023-06-26T03:33:06;21.20;99.90
51500;DHT22;39101;53.478;6.158;2023-06-26T03:35:32;21.10;99.90
51500;DHT22;39101;53.478;6.158;2023-06-26T03:37:58;21.10;99.90
51500;DHT22;39101;53.478;6.158;2023-06-26T03:40:26;21.10;99.90
51500;DHT22;39101;53.478;6.158;2023-06-26T03:42:51;21.10;99.90
51500;DHT22;39101;53.478;6.158;2023-06-26T03:45:17;21.00;99.90
51500;DHT22;39101;53.478;6.158;2023-06-26T03:47:44;21.10;99.90
51500;DHT22;39101;53.478;6.158;2023-06-26T03:50:12;21.00;99.90
51500;DHT22;39101;53.478;6.158;2023-06-26T03:52:38;21.10;99.90
51500;DHT22;39101;53.478;6.158;2023-06-26T03:55:04;21.00;99.90
51500;DHT22;39101;53.478;6.158;2023-06-26T03:57:29;21.00;99.90
51500;DHT22;39101;53.478;6.158;2023-06-26T03:59:55;21.00;99.90
51500;DHT22;39101;53.478;6.158;2023-06-26T04:02:21;21.10;99.90
51500;DHT22;39101;53.478;6.158;2023-06-26T04:04:46;21.20;99.90
51500;DHT22;39101;53.478;6.158;2023-06-26T04:07:12;21.10;99.90
51500;DHT22;39101;53.478;6.158;2023-06-26T04:09:38;21.10;99.90
51500;DHT22;39101;53.478;6.158;2023-06-26T04:12:04;21.20;99.90
51500;DHT22;39101;53.478;6.158;2023-06-26T04:14:29;21.30;99.90
51500;DHT22;39101;53.478;6.158;2023-06-26T04:16:55;21.10;99.90
51500;DHT22;39101;53.478;6.158;2023-06-26T04:19:20;21.10;99.90
51500;DHT22;39101;53.478;6.158;2023-06-26T04:21:46;21.00;99.90
51500;DHT22;39101;53.478;6.158;2023-06-26T04:24:12;20.90;99.90
51500;DHT22;39101;53.478;6.158;2023-06-26T04:26:38;20.80;99.90
51500;DHT22;39101;53.478;6.158;2023-06-26T04:29:06;20.50;99.90
51500;DHT22;39101;53.478;6.158;2023-06-26T04:31:32;20.40;99.90
51500;DHT22;39101;53.478;6.158;2023-06-26T04:33:58;20.30;99.90
51500;DHT22;39101;53.478;6.158;2023-06-26T04:36:24;20.10;99.90
51500;DHT22;39101;53.478;6.158;2023-06-26T04:38:56;20.00;99.90
51500;DHT22;39101;53.478;6.158;2023-06-26T04:41:22;19.80;99.90
51500;DHT22;39101;53.478;6.158;2023-06-26T04:43:48;19.50;99.90
51500;DHT22;39101;53.478;6.158;2023-06-26T04:46:14;19.30;99.90
51500;DHT22;39101;53.478;6.158;2023-06-26T04:48:39;19.30;99.90
51500;DHT22;39101;53.478;6.158;2023-06-26T04:51:05;19.10;99.90
51500;DHT22;39101;53.478;6.158;2023-06-26T04:53:31;19.00;99.90
51500;DHT22;39101;53.478;6.158;2023-06-26T04:55:56;19.00;99.90
51500;DHT22;39101;53.478;6.158;2023-06-26T04:58:22;18.90;99.90
51500;DHT22;39101;53.478;6.158;2023-06-26T05:00:48;18.80;99.90
51500;DHT22;39101;53.478;6.158;2023-06-26T05:03:15;18.70;99.90
51500;DHT22;39101;53.478;6.158;2023-06-26T05:05:42;18.80;99.90
51500;DHT22;39101;53.478;6.158;2023-06-26T05:08:15;18.60;99.90
51500;DHT22;39101;53.478;6.158;2023-06-26T05:10:41;18.70;99.90
51500;DHT22;39101;53.478;6.158;2023-06-26T05:13:06;18.50;99.90
51500;DHT22;39101;53.478;6.158;2023-06-26T05:15:32;18.50;99.90
51500;DHT22;39101;53.478;6.158;2023-06-26T05:17:58;18.50;99.90
51500;DHT22;39101;53.478;6.158;2023-06-26T05:20:23;18.40;99.90
51500;DHT22;39101;53.478;6.158;2023-06-26T05:22:50;18.40;99.90
51500;DHT22;39101;53.478;6.158;2023-06-26T05:25:15;18.50;99.90
51500;DHT22;39101;53.478;6.158;2023-06-26T05:27:43;18.40;99.90
51500;DHT22;39101;53.478;6.158;2023-06-26T05:30:10;18.30;99.90
51500;DHT22;39101;53.478;6.158;2023-06-26T05:32:37;18.30;99.90
51500;DHT22;39101;53.478;6.158;2023-06-26T05:35:03;18.20;99.90
51500;DHT22;39101;53.478;6.158;2023-06-26T05:37:31;18.20;99.90
51500;DHT22;39101;53.478;6.158;2023-06-26T05:39:57;18.10;99.90
51500;DHT22;39101;53.478;6.158;2023-06-26T05:42:23;18.10;99.90
51500;DHT22;39101;53.478;6.158;2023-06-26T05:44:49;18.10;99.90
51500;DHT22;39101;53.478;6.158;2023-06-26T05:47:15;18.20;99.90
51500;DHT22;39101;53.478;6.158;2023-06-26T05:49:41;18.20;99.90
51500;DHT22;39101;53.478;6.158;2023-06-26T05:52:07;18.30;99.90
51500;DHT22;39101;53.478;6.158;2023-06-26T05:54:33;18.20;99.90
51500;DHT22;39101;53.478;6.158;2023-06-26T05:56:59;18.20;99.90
51500;DHT22;39101;53.478;6.158;2023-06-26T05:59:26;18.20;99.90
51500;DHT22;39101;53.478;6.158;2023-06-26T06:01:52;18.30;99.90
51500;DHT22;39101;53.478;6.158;2023-06-26T06:04:18;18.30;99.90
51500;DHT22;39101;53.478;6.158;2023-06-26T06:06:43;18.40;99.90
51500;DHT22;39101;53.478;6.158;2023-06-26T06:09:09;18.30;99.90
51500;DHT22;39101;53.478;6.158;2023-06-26T06:11:34;18.40;99.90
51500;DHT22;39101;53.478;6.158;2023-06-26T06:14:00;18.40;99.90
51500;DHT22;39101;53.478;6.158;2023-06-26T06:16:26;18.30;99.90
51500;DHT22;39101;53.478;6.158;2023-06-26T06:18:54;18.30;99.90
51500;DHT22;39101;53.478;6.158;2023-06-26T06:21:20;18.30;99.90
51500;DHT22;39101;53.478;6.158;2023-06-26T06:23:46;18.50;99.90
51500;DHT22;39101;53.478;6.158;2023-06-26T06:26:12;18.40;99.90
51500;DHT22;39101;53.478;6.158;2023-06-26T06:28:41;18.60;99.90
51500;DHT22;39101;53.478;6.158;2023-06-26T06:31:07;18.60;99.90
51500;DHT22;39101;53.478;6.158;2023-06-26T06:33:32;18.60;99.90
51500;DHT22;39101;53.478;6.158;2023-06-26T06:35:58;18.70;99.90
51500;DHT22;39101;53.478;6.158;2023-06-26T06:38:24;18.60;99.90
51500;DHT22;39101;53.478;6.158;2023-06-26T06:40:49;18.70;99.90
51500;DHT22;39101;53.478;6.158;2023-06-26T06:43:15;18.80;99.90
51500;DHT22;39101;53.478;6.158;2023-06-26T06:45:41;18.70;99.90
51500;DHT22;39101;53.478;6.158;2023-06-26T06:48:06;18.80;99.90
51500;DHT22;39101;53.478;6.158;2023-06-26T06:50:32;18.90;99.90
51500;DHT22;39101;53.478;6.158;2023-06-26T06:52:58;18.90;99.90
51500;DHT22;39101;53.478;6.158;2023-06-26T06:55:24;18.90;99.90
51500;DHT22;39101;53.478;6.158;2023-06-26T06:57:51;18.90;99.90
51500;DHT22;39101;53.478;6.158;2023-06-26T07:00:17;18.90;99.90
51500;DHT22;39101;53.478;6.158;2023-06-26T07:02:44;18.90;99.90
51500;DHT22;39101;53.478;6.158;2023-06-26T07:05:10;18.90;99.90
51500;DHT22;39101;53.478;6.158;2023-06-26T07:07:37;19.00;99.90
51500;DHT22;39101;53.478;6.158;2023-06-26T07:10:12;18.90;99.90
51500;DHT22;39101;53.478;6.158;2023-06-26T07:12:38;19.00;99.90
51500;DHT22;39101;53.478;6.158;2023-06-26T07:15:05;18.90;99.90
51500;DHT22;39101;53.478;6.158;2023-06-26T07:17:32;19.10;99.90
51500;DHT22;39101;53.478;6.158;2023-06-26T07:19:59;19.20;99.90
51500;DHT22;39101;53.478;6.158;2023-06-26T07:22:26;19.10;99.90
51500;DHT22;39101;53.478;6.158;2023-06-26T07:24:52;19.40;99.90
51500;DHT22;39101;53.478;6.158;2023-06-26T07:27:18;19.60;99.90
51500;DHT22;39101;53.478;6.158;2023-06-26T07:29:44;19.60;99.90
51500;DHT22;39101;53.478;6.158;2023-06-26T07:32:10;19.80;99.90
51500;DHT22;39101;53.478;6.158;2023-06-26T07:34:36;19.80;99.90
51500;DHT22;39101;53.478;6.158;2023-06-26T07:37:02;19.80;99.90
51500;DHT22;39101;53.478;6.158;2023-06-26T07:39:27;19.90;99.90
51500;DHT22;39101;53.478;6.158;2023-06-26T07:41:53;19.90;99.90
51500;DHT22;39101;53.478;6.158;2023-06-26T07:44:19;20.00;99.90
51500;DHT22;39101;53.478;6.158;2023-06-26T07:46:44;20.00;99.90
51500;DHT22;39101;53.478;6.158;2023-06-26T07:49:11;20.00;99.90
51500;DHT22;39101;53.478;6.158;2023-06-26T07:51:37;20.20;99.90
51500;DHT22;39101;53.478;6.158;2023-06-26T07:54:02;20.20;99.90
51500;DHT22;39101;53.478;6.158;2023-06-26T07:56:28;20.10;99.90
51500;DHT22;39101;53.478;6.158;2023-06-26T07:58:54;20.10;99.90
51500;DHT22;39101;53.478;6.158;2023-06-26T08:01:19;20.20;99.90
51500;DHT22;39101;53.478;6.158;2023-06-26T08:03:45;20.10;99.90
51500;DHT22;39101;53.478;6.158;2023-06-26T08:06:11;20.10;99.90
51500;DHT22;39101;53.478;6.158;2023-06-26T08:08:36;20.10;99.90
51500;DHT22;39101;53.478;6.158;2023-06-26T08:11:02;20.20;99.90
51500;DHT22;39101;53.478;6.158;2023-06-26T08:13:28;20.10;99.90
51500;DHT22;39101;53.478;6.158;2023-06-26T08:15:53;20.10;99.90
51500;DHT22;39101;53.478;6.158;2023-06-26T08:18:20;20.10;99.90
51500;DHT22;39101;53.478;6.158;2023-06-26T08:20:45;20.10;99.90
51500;DHT22;39101;53.478;6.158;2023-06-26T08:23:11;20.20;99.90
51500;DHT22;39101;53.478;6.158;2023-06-26T08:25:37;20.20;99.90
51500;DHT22;39101;53.478;6.158;2023-06-26T08:28:02;20.20;99.90
51500;DHT22;39101;53.478;6.158;2023-06-26T08:30:28;20.30;99.90
51500;DHT22;39101;53.478;6.158;2023-06-26T08:32:57;20.20;99.90
51500;DHT22;39101;53.478;6.158;2023-06-26T08:35:23;20.20;99.90
51500;DHT22;39101;53.478;6.158;2023-06-26T08:37:48;20.30;99.90
51500;DHT22;39101;53.478;6.158;2023-06-26T08:40:17;20.30;99.90
51500;DHT22;39101;53.478;6.158;2023-06-26T08:42:44;20.20;99.90
51500;DHT22;39101;53.478;6.158;2023-06-26T08:45:10;20.20;99.90
51500;DHT22;39101;53.478;6.158;2023-06-26T08:47:37;20.30;99.90
51500;DHT22;39101;53.478;6.158;2023-06-26T08:50:13;20.30;99.90
51500;DHT22;39101;53.478;6.158;2023-06-26T08:52:43;20.30;99.90
51500;DHT22;39101;53.478;6.158;2023-06-26T08:55:12;20.30;99.90
51500;DHT22;39101;53.478;6.158;2023-06-26T08:57:40;20.30;99.90
51500;DHT22;39101;53.478;6.158;2023-06-26T09:00:06;20.30;99.90
51500;DHT22;39101;53.478;6.158;2023-06-26T09:02:35;20.20;99.90
51500;DHT22;39101;53.478;6.158;2023-06-26T09:05:02;20.10;99.90
51500;DHT22;39101;53.478;6.158;2023-06-26T09:07:28;20.20;99.90
51500;DHT22;39101;53.478;6.158;2023-06-26T09:09:54;20.20;99.90
51500;DHT22;39101;53.478;6.158;2023-06-26T09:12:20;20.20;99.90
51500;DHT22;39101;53.478;6.158;2023-06-26T09:14:46;20.10;99.90
51500;DHT22;39101;53.478;6.158;2023-06-26T09:17:33;20.10;99.90
51500;DHT22;39101;53.478;6.158;2023-06-26T09:20:04;20.00;99.90
51500;DHT22;39101;53.478;6.158;2023-06-26T09:22:36;20.00;99.90
51500;DHT22;39101;53.478;6.158;2023-06-26T09:25:05;19.90;99.90
51500;DHT22;39101;53.478;6.158;2023-06-26T09:27:31;19.90;99.90
51500;DHT22;39101;53.478;6.158;2023-06-26T09:29:57;19.90;99.90
51500;DHT22;39101;53.478;6.158;2023-06-26T09:32:27;20.00;99.90
51500;DHT22;39101;53.478;6.158;2023-06-26T09:34:53;20.00;99.90
51500;DHT22;39101;53.478;6.158;2023-06-26T09:37:21;19.90;99.90
51500;DHT22;39101;53.478;6.158;2023-06-26T09:39:48;20.10;99.90
51500;DHT22;39101;53.478;6.158;2023-06-26T09:42:14;20.10;99.90
51500;DHT22;39101;53.478;6.158;2023-06-26T09:44:44;20.00;99.90
51500;DHT22;39101;53.478;6.158;2023-06-26T09:47:10;20.10;99.90
51500;DHT22;39101;53.478;6.158;2023-06-26T09:49:36;20.20;99.90
51500;DHT22;39101;53.478;6.158;2023-06-26T09:52:06;20.20;99.90
51500;DHT22;39101;53.478;6.158;2023-06-26T09:54:32;20.20;99.90
51500;DHT22;39101;53.478;6.158;2023-06-26T09:57:08;20.20;99.90
51500;DHT22;39101;53.478;6.158;2023-06-26T09:59:35;20.10;99.90
51500;DHT22;39101;53.478;6.158;2023-06-26T10:02:01;20.20;99.90
51500;DHT22;39101;53.478;6.158;2023-06-26T10:04:27;20.10;99.90
51500;DHT22;39101;53.478;6.158;2023-06-26T10:06:56;20.20;99.90
51500;DHT22;39101;53.478;6.158;2023-06-26T10:09:22;20.20;99.90
51500;DHT22;39101;53.478;6.158;2023-06-26T10:14:56;20.10;99.90
51500;DHT22;39101;53.478;6.158;2023-06-26T10:17:25;20.20;99.90
51500;DHT22;39101;53.478;6.158;2023-06-26T10:19:52;20.10;99.90
51500;DHT22;39101;53.478;6.158;2023-06-26T10:22:20;20.00;99.90
51500;DHT22;39101;53.478;6.158;2023-06-26T10:24:50;20.10;99.90
51500;DHT22;39101;53.478;6.158;2023-06-26T10:27:19;20.00;99.90
51500;DHT22;39101;53.478;6.158;2023-06-26T10:29:54;20.00;99.90
51500;DHT22;39101;53.478;6.158;2023-06-26T10:32:21;20.00;99.90
51500;DHT22;39101;53.478;6.158;2023-06-26T10:34:48;20.00;99.90
51500;DHT22;39101;53.478;6.158;2023-06-26T10:37:14;20.10;99.90
51500;DHT22;39101;53.478;6.158;2023-06-26T10:42:12;20.00;99.90
51500;DHT22;39101;53.478;6.158;2023-06-26T10:44:45;20.00;99.90
51500;DHT22;39101;53.478;6.158;2023-06-26T10:47:30;19.90;99.90
51500;DHT22;39101;53.478;6.158;2023-06-26T10:53:07;19.90;99.90
51500;DHT22;39101;53.478;6.158;2023-06-26T10:55:33;19.90;99.90
51500;DHT22;39101;53.478;6.158;2023-06-26T10:58:00;19.90;99.90
51500;DHT22;39101;53.478;6.158;2023-06-26T11:00:27;19.90;99.90
51500;DHT22;39101;53.478;6.158;2023-06-26T11:02:53;19.90;99.90
51500;DHT22;39101;53.478;6.158;2023-06-26T11:05:33;19.90;99.90
51500;DHT22;39101;53.478;6.158;2023-06-26T11:08:08;19.80;99.90
51500;DHT22;39101;53.478;6.158;2023-06-26T11:10:53;19.80;99.90
51500;DHT22;39101;53.478;6.158;2023-06-26T11:13:20;19.90;99.90
51500;DHT22;39101;53.478;6.158;2023-06-26T11:15:49;19.80;99.90
51500;DHT22;39101;53.478;6.158;2023-06-26T11:18:16;19.80;99.90
51500;DHT22;39101;53.478;6.158;2023-06-26T11:20:42;19.90;99.90
51500;DHT22;39101;53.478;6.158;2023-06-26T11:23:08;19.90;99.90
51500;DHT22;39101;53.478;6.158;2023-06-26T11:25:38;19.90;99.90
51500;DHT22;39101;53.478;6.158;2023-06-26T11:28:04;19.90;99.90
51500;DHT22;39101;53.478;6.158;2023-06-26T11:30:31;19.90;99.90
51500;DHT22;39101;53.478;6.158;2023-06-26T11:33:08;19.80;99.90
51500;DHT22;39101;53.478;6.158;2023-06-26T11:35:34;19.90;99.90
51500;DHT22;39101;53.478;6.158;2023-06-26T11:38:01;19.80;99.90
51500;DHT22;39101;53.478;6.158;2023-06-26T11:40:32;19.80;99.90
51500;DHT22;39101;53.478;6.158;2023-06-26T11:42:59;19.80;99.90
51500;DHT22;39101;53.478;6.158;2023-06-26T11:45:29;19.80;99.90
51500;DHT22;39101;53.478;6.158;2023-06-26T11:47:56;19.70;99.90
51500;DHT22;39101;53.478;6.158;2023-06-26T11:50:24;19.80;99.90
51500;DHT22;39101;53.478;6.158;2023-06-26T11:52:57;19.80;99.90
51500;DHT22;39101;53.478;6.158;2023-06-26T11:55:24;19.80;99.90
51500;DHT22;39101;53.478;6.158;2023-06-26T11:57:53;19.70;99.90
51500;DHT22;39101;53.478;6.158;2023-06-26T12:00:19;19.70;99.90
51500;DHT22;39101;53.478;6.158;2023-06-26T12:02:45;19.60;99.90
51500;DHT22;39101;53.478;6.158;2023-06-26T12:05:13;19.60;99.90
51500;DHT22;39101;53.478;6.158;2023-06-26T12:07:41;19.60;99.90
51500;DHT22;39101;53.478;6.158;2023-06-26T12:10:08;19.60;99.90
51500;DHT22;39101;53.478;6.158;2023-06-26T12:12:34;19.60;99.90
51500;DHT22;39101;53.478;6.158;2023-06-26T12:15:00;19.70;99.90
51500;DHT22;39101;53.478;6.158;2023-06-26T12:17:26;19.70;99.90
51500;DHT22;39101;53.478;6.158;2023-06-26T12:19:52;19.70;99.90
51500;DHT22;39101;53.478;6.158;2023-06-26T12:22:18;19.70;99.90
51500;DHT22;39101;53.478;6.158;2023-06-26T12:24:45;19.70;99.90
51500;DHT22;39101;53.478;6.158;2023-06-26T12:27:13;19.60;99.90
51500;DHT22;39101;53.478;6.158;2023-06-26T12:29:40;19.60;99.90
51500;DHT22;39101;53.478;6.158;2023-06-26T12:32:10;19.60;99.90
51500;DHT22;39101;53.478;6.158;2023-06-26T12:34:37;19.70;99.90
51500;DHT22;39101;53.478;6.158;2023-06-26T12:37:08;19.60;99.90
51500;DHT22;39101;53.478;6.158;2023-06-26T12:39:49;19.60;99.90
51500;DHT22;39101;53.478;6.158;2023-06-26T12:42:18;19.70;99.90
51500;DHT22;39101;53.478;6.158;2023-06-26T12:44:44;19.60;99.90
51500;DHT22;39101;53.478;6.158;2023-06-26T12:47:10;19.60;99.90
51500;DHT22;39101;53.478;6.158;2023-06-26T12:49:43;19.70;99.90
51500;DHT22;39101;53.478;6.158;2023-06-26T12:52:13;19.70;99.90
51500;DHT22;39101;53.478;6.158;2023-06-26T12:54:44;19.80;99.90
51500;DHT22;39101;53.478;6.158;2023-06-26T12:57:12;19.70;99.90
51500;DHT22;39101;53.478;6.158;2023-06-26T12:59:39;19.80;99.90
51500;DHT22;39101;53.478;6.158;2023-06-26T13:02:06;19.70;99.90
51500;DHT22;39101;53.478;6.158;2023-06-26T13:04:32;19.80;99.90
51500;DHT22;39101;53.478;6.158;2023-06-26T13:06:58;19.80;99.90
51500;DHT22;39101;53.478;6.158;2023-06-26T13:09:24;19.70;99.90
51500;DHT22;39101;53.478;6.158;2023-06-26T13:11:51;19.70;99.90
51500;DHT22;39101;53.478;6.158;2023-06-26T13:14:17;19.70;99.90
51500;DHT22;39101;53.478;6.158;2023-06-26T13:16:42;19.70;99.90
51500;DHT22;39101;53.478;6.158;2023-06-26T13:19:08;19.70;99.90
51500;DHT22;39101;53.478;6.158;2023-06-26T13:21:34;19.80;99.90
51500;DHT22;39101;53.478;6.158;2023-06-26T13:24:00;19.70;99.90
51500;DHT22;39101;53.478;6.158;2023-06-26T13:26:27;19.60;99.90
51500;DHT22;39101;53.478;6.158;2023-06-26T13:28:54;19.60;99.90
51500;DHT22;39101;53.478;6.158;2023-06-26T13:31:20;19.60;99.90
51500;DHT22;39101;53.478;6.158;2023-06-26T13:33:46;19.40;99.90
51500;DHT22;39101;53.478;6.158;2023-06-26T13:36:15;19.50;99.90
51500;DHT22;39101;53.478;6.158;2023-06-26T13:38:40;19.60;99.90
51500;DHT22;39101;53.478;6.158;2023-06-26T13:41:06;19.50;99.90
51500;DHT22;39101;53.478;6.158;2023-06-26T13:43:32;19.60;99.90
51500;DHT22;39101;53.478;6.158;2023-06-26T13:45:57;19.60;99.90
51500;DHT22;39101;53.478;6.158;2023-06-26T13:48:23;19.60;99.90
51500;DHT22;39101;53.478;6.158;2023-06-26T13:50:52;19.50;99.90
51500;DHT22;39101;53.478;6.158;2023-06-26T13:53:18;19.60;99.90
51500;DHT22;39101;53.478;6.158;2023-06-26T13:55:44;19.50;99.90
51500;DHT22;39101;53.478;6.158;2023-06-26T13:58:10;19.50;99.90
51500;DHT22;39101;53.478;6.158;2023-06-26T14:00:37;19.60;99.90
51500;DHT22;39101;53.478;6.158;2023-06-26T14:03:06;19.70;99.90
51500;DHT22;39101;53.478;6.158;2023-06-26T14:05:33;19.60;99.90
51500;DHT22;39101;53.478;6.158;2023-06-26T14:07:59;19.60;99.90
51500;DHT22;39101;53.478;6.158;2023-06-26T14:10:25;19.50;99.90
51500;DHT22;39101;53.478;6.158;2023-06-26T14:12:51;19.60;99.90
51500;DHT22;39101;53.478;6.158;2023-06-26T14:15:16;19.70;99.90
51500;DHT22;39101;53.478;6.158;2023-06-26T14:17:42;19.70;99.90
51500;DHT22;39101;53.478;6.158;2023-06-26T14:20:09;19.70;99.90
51500;DHT22;39101;53.478;6.158;2023-06-26T14:22:41;19.70;99.90
51500;DHT22;39101;53.478;6.158;2023-06-26T14:25:08;19.60;99.90
51500;DHT22;39101;53.478;6.158;2023-06-26T14:27:35;19.50;99.90
51500;DHT22;39101;53.478;6.158;2023-06-26T14:30:01;19.60;99.90
51500;DHT22;39101;53.478;6.158;2023-06-26T14:32:27;19.40;99.90
51500;DHT22;39101;53.478;6.158;2023-06-26T14:34:52;19.40;99.90
51500;DHT22;39101;53.478;6.158;2023-06-26T14:37:18;19.50;99.90
51500;DHT22;39101;53.478;6.158;2023-06-26T14:39:45;19.50;99.90
51500;DHT22;39101;53.478;6.158;2023-06-26T14:42:10;19.40;99.90
51500;DHT22;39101;53.478;6.158;2023-06-26T14:44:36;19.60;99.90
51500;DHT22;39101;53.478;6.158;2023-06-26T14:47:02;19.60;99.90
51500;DHT22;39101;53.478;6.158;2023-06-26T14:49:28;19.60;99.90
51500;DHT22;39101;53.478;6.158;2023-06-26T14:51:54;19.70;99.90
51500;DHT22;39101;53.478;6.158;2023-06-26T14:54:19;19.70;99.90
51500;DHT22;39101;53.478;6.158;2023-06-26T14:56:45;19.60;99.90
51500;DHT22;39101;53.478;6.158;2023-06-26T14:59:11;19.60;99.90
51500;DHT22;39101;53.478;6.158;2023-06-26T15:01:38;19.70;99.90
51500;DHT22;39101;53.478;6.158;2023-06-26T15:04:05;19.80;99.90
51500;DHT22;39101;53.478;6.158;2023-06-26T15:06:31;19.80;99.90
51500;DHT22;39101;53.478;6.158;2023-06-26T15:08:57;19.80;99.90
51500;DHT22;39101;53.478;6.158;2023-06-26T15:11:23;19.80;99.90
51500;DHT22;39101;53.478;6.158;2023-06-26T15:13:49;19.80;99.90
51500;DHT22;39101;53.478;6.158;2023-06-26T15:16:14;19.70;99.90
51500;DHT22;39101;53.478;6.158;2023-06-26T15:18:40;19.80;99.90
51500;DHT22;39101;53.478;6.158;2023-06-26T15:21:07;19.80;99.90
51500;DHT22;39101;53.478;6.158;2023-06-26T15:23:33;19.70;99.90
51500;DHT22;39101;53.478;6.158;2023-06-26T15:25:59;19.90;99.90
51500;DHT22;39101;53.478;6.158;2023-06-26T15:28:25;19.90;99.90
51500;DHT22;39101;53.478;6.158;2023-06-26T15:30:50;19.90;99.90
51500;DHT22;39101;53.478;6.158;2023-06-26T15:33:16;20.10;99.90
51500;DHT22;39101;53.478;6.158;2023-06-26T15:35:42;20.20;99.90
51500;DHT22;39101;53.478;6.158;2023-06-26T15:38:07;20.20;99.90
51500;DHT22;39101;53.478;6.158;2023-06-26T15:40:33;20.30;99.90
51500;DHT22;39101;53.478;6.158;2023-06-26T15:42:58;20.40;99.90